KAST/AST METAR and TAF weather

Enter ICAO airport designator
Station Type Date Time Source
KAST METAR 2019/10/20 18:55 UTC NOAA

KAST 201855Z AUTO 03005KT 10SM SCT015 OVC022 11/10 A2996 RMK AO2 SLP145 T01110100


Station Type Date Time Source
KAST Decoded METAR 2019/10/20 18:55 UTC NOAA

PORT OF ASTORIA AIRPORT, OR, United States (KAST) 46-09N 123-53W 3M
Oct 20, 2019 - 02:55 PM EDT / 2019.10.20 1855 UTC
Wind: from the NNE (030 degrees) at 6 MPH (5 KT):0
Visibility: 10 mile(s):0
Sky conditions: overcast
Temperature: 52.0 F (11.1 C)
Dew Point: 50.0 F (10.0 C)
Relative Humidity: 92%
Pressure (altimeter): 29.96 in. Hg (1014 hPa)
ob: KAST 201855Z AUTO 03005KT 10SM SCT015 OVC022 11/10 A2996 RMK AO2 SLP145 T01110100
cycle: 19

Station Type Date Time Source
KAST TAF 2019/10/20 18:36 UTC NOAA

TAF KAST 201735Z 2018/2118 12010KT 5SM -RA OVC022
TEMPO 2018/2020 3SM RA BR OVC018
FM202000 19011G20KT 2SM RA BR OVC012
FM202200 25011KT 5SM -SHRA BR BKN025 OVC050
FM210400 23005KT 6SM BR VCSH SCT015 OVC028
FM211600 21004KT 5SM -SHRA BR BKN015 OVC040

Example: see airport list